createdAt,value
2018-10-16T00:00:38.176Z,937.4
2018-10-16T00:01:39.259Z,937.34
2018-10-16T00:02:40.048Z,937.38
2018-10-16T00:03:41.112Z,937.32
2018-10-16T00:04:42.346Z,937.41
2018-10-16T00:05:43.691Z,937.41
2018-10-16T00:06:44.036Z,937.41
2018-10-16T00:07:45.003Z,937.42
2018-10-16T00:08:45.792Z,937.43
2018-10-16T00:09:46.584Z,937.47
2018-10-16T00:10:47.374Z,937.48
2018-10-16T00:11:48.483Z,937.47
2018-10-16T00:12:49.271Z,937.5
2018-10-16T00:13:49.623Z,937.52
2018-10-16T00:14:50.688Z,937.52
2018-10-16T00:15:51.753Z,937.53
2018-10-16T00:16:53.095Z,937.54
2018-10-16T00:17:53.608Z,937.52
2018-10-16T00:18:54.674Z,937.5
2018-10-16T00:19:55.737Z,937.47
2018-10-16T00:20:56.526Z,937.51
2018-10-16T00:21:58.038Z,937.49
2018-10-16T00:22:59.101Z,937.48
2018-10-16T00:23:59.893Z,937.54
2018-10-16T00:25:00.515Z,937.52
2018-10-16T00:26:01.415Z,937.52
2018-10-16T00:27:02.215Z,937.48
2018-10-16T00:28:03.035Z,937.48
2018-10-16T00:29:03.381Z,937.47
2018-10-16T00:30:04.721Z,937.49
2018-10-16T00:31:05.793Z,937.52
2018-10-16T00:32:06.583Z,937.48
2018-10-16T00:33:07.644Z,937.5
2018-10-16T00:34:08.043Z,937.47
2018-10-16T00:35:08.667Z,937.43
2018-10-16T00:36:09.457Z,937.49
2018-10-16T00:37:10.527Z,937.46
2018-10-16T00:38:11.761Z,937.46
2018-10-16T00:39:12.826Z,937.44
2018-10-16T00:40:13.892Z,937.44
2018-10-16T00:41:14.680Z,937.47
2018-10-16T00:42:15.746Z,937.48
2018-10-16T00:43:16.534Z,937.5
2018-10-16T00:44:16.878Z,937.5
2018-10-16T00:45:17.277Z,937.53
2018-10-16T00:46:18.381Z,937.5
2018-10-16T00:47:19.388Z,937.51
2018-10-16T00:48:20.622Z,937.47
2018-10-16T00:49:21.425Z,937.56
2018-10-16T00:50:22.050Z,937.53
2018-10-16T00:51:23.119Z,937.5
2018-10-16T00:52:23.453Z,937.53
2018-10-16T00:53:23.796Z,937.56
2018-10-16T00:54:24.138Z,937.55
2018-10-16T00:55:25.037Z,937.52
2018-10-16T00:56:25.825Z,937.51
2018-10-16T00:57:26.165Z,937.51
2018-10-16T00:58:26.960Z,937.61
2018-10-16T00:59:28.304Z,937.53
2018-10-16T01:00:28.816Z,937.56
2018-10-16T01:01:29.332Z,937.55
2018-10-16T01:02:30.396Z,937.58
2018-10-16T01:03:31.461Z,937.61
2018-10-16T01:04:32.974Z,937.6
2018-10-16T01:05:33.757Z,937.54
2018-10-16T01:06:34.547Z,937.58
2018-10-16T01:07:35.779Z,937.57
2018-10-16T01:08:37.023Z,937.53
2018-10-16T01:09:37.810Z,937.6
2018-10-16T01:10:38.872Z,937.53
2018-10-16T01:11:39.382Z,937.56
2018-10-16T01:12:39.890Z,937.51
2018-10-16T01:13:40.513Z,937.55
2018-10-16T01:14:41.583Z,937.59
2018-10-16T01:15:42.371Z,937.57
2018-10-16T01:16:42.882Z,937.6
2018-10-16T01:17:43.672Z,937.59
2018-10-16T01:18:44.467Z,937.59
2018-10-16T01:19:45.642Z,937.58
2018-10-16T01:20:46.435Z,937.58
2018-10-16T01:21:46.777Z,937.57
2018-10-16T01:22:47.282Z,937.57
2018-10-16T01:23:47.793Z,937.53
2018-10-16T01:24:48.856Z,937.63
2018-10-16T01:25:50.087Z,937.63
2018-10-16T01:26:50.438Z,937.6
2018-10-16T01:27:51.227Z,937.56
2018-10-16T01:28:52.046Z,937.58
2018-10-16T01:29:53.392Z,937.59
2018-10-16T01:30:54.180Z,937.56
2018-10-16T01:31:55.018Z,937.58
2018-10-16T01:32:56.031Z,937.6
2018-10-16T01:33:56.542Z,937.6
2018-10-16T01:34:57.329Z,937.59
2018-10-16T01:35:58.118Z,937.61
2018-10-16T01:36:58.904Z,937.62
2018-10-16T01:38:00.137Z,937.59
2018-10-16T01:39:00.508Z,937.64
2018-10-16T01:40:00.853Z,937.61
2018-10-16T01:41:02.365Z,937.7
2018-10-16T01:42:03.435Z,937.62
2018-10-16T01:43:04.944Z,937.66
2018-10-16T01:44:06.454Z,937.6
2018-10-16T01:45:07.552Z,937.61
2018-10-16T01:46:08.756Z,937.6
2018-10-16T01:47:09.271Z,937.6
2018-10-16T01:48:10.332Z,937.63
2018-10-16T01:49:11.401Z,937.56
2018-10-16T01:50:12.743Z,937.56
2018-10-16T01:51:13.810Z,937.55
2018-10-16T01:52:14.428Z,937.58
2018-10-16T01:53:15.498Z,937.57
2018-10-16T01:54:16.286Z,937.6
2018-10-16T01:55:16.797Z,937.63
2018-10-16T01:56:17.588Z,937.61
2018-10-16T01:57:18.376Z,937.58
2018-10-16T01:58:19.160Z,937.54
2018-10-16T01:59:19.954Z,937.54
2018-10-16T02:00:20.574Z,937.63
2018-10-16T02:01:21.641Z,937.6
2018-10-16T02:02:23.036Z,937.53
2018-10-16T02:03:23.438Z,937.62
2018-10-16T02:04:23.956Z,937.61
2018-10-16T02:05:24.469Z,937.58
2018-10-16T02:06:25.569Z,937.6
2018-10-16T02:07:26.359Z,937.61
2018-10-16T02:08:27.256Z,937.63
2018-10-16T02:09:40.481Z,937.55
2018-10-16T02:10:41.292Z,937.63
2018-10-16T02:11:42.083Z,937.57
2018-10-16T02:12:43.154Z,937.55
2018-10-16T02:13:44.215Z,937.6
2018-10-16T02:14:45.433Z,937.58
2018-10-16T02:15:46.473Z,937.58
2018-10-16T02:16:47.980Z,937.67
2018-10-16T02:17:48.771Z,937.63
2018-10-16T02:18:49.554Z,937.59
2018-10-16T02:19:50.617Z,937.58
2018-10-16T02:20:51.131Z,937.63
2018-10-16T02:21:51.763Z,937.73
2018-10-16T02:22:52.273Z,937.68
2018-10-16T02:23:52.781Z,937.71
2018-10-16T02:24:54.056Z,937.67
2018-10-16T02:25:54.798Z,937.69
2018-10-16T02:26:55.417Z,937.78
2018-10-16T02:27:56.210Z,937.87
2018-10-16T02:28:56.996Z,937.67
2018-10-16T02:29:57.785Z,937.71
2018-10-16T02:30:58.859Z,937.7
2018-10-16T02:32:00.084Z,937.77
2018-10-16T02:33:01.003Z,937.78
2018-10-16T02:34:02.073Z,937.78
2018-10-16T02:35:03.246Z,937.79
2018-10-16T02:36:03.865Z,937.79
2018-10-16T02:37:04.213Z,937.81
2018-10-16T02:38:04.997Z,937.79
2018-10-16T02:39:05.787Z,937.82
2018-10-16T02:40:06.128Z,937.79
2018-10-16T02:41:06.487Z,937.81
2018-10-16T02:42:07.274Z,937.81
2018-10-16T02:43:08.506Z,937.81
2018-10-16T02:44:09.574Z,937.84
2018-10-16T02:45:10.644Z,937.85
2018-10-16T02:46:11.994Z,937.77
2018-10-16T02:47:12.785Z,937.82
2018-10-16T02:48:13.693Z,937.81
2018-10-16T02:49:14.044Z,937.81
2018-10-16T02:50:15.116Z,937.79
2018-10-16T02:51:16.078Z,937.82
2018-10-16T02:52:16.872Z,937.85
2018-10-16T02:53:17.382Z,937.86
2018-10-16T02:54:18.472Z,937.87
2018-10-16T02:55:19.093Z,937.86
2018-10-16T02:56:19.883Z,937.88
2018-10-16T02:57:20.389Z,937.89
2018-10-16T02:58:21.454Z,937.9
2018-10-16T02:59:22.519Z,937.86
2018-10-16T03:00:23.584Z,937.9
2018-10-16T03:01:24.686Z,937.92
2018-10-16T03:02:26.053Z,937.93
2018-10-16T03:03:27.393Z,937.97
2018-10-16T03:04:28.457Z,937.95
2018-10-16T03:05:29.526Z,937.97
2018-10-16T03:06:30.170Z,937.94
2018-10-16T03:07:31.343Z,938
2018-10-16T03:08:32.128Z,938
2018-10-16T03:09:33.191Z,937.97
2018-10-16T03:10:34.704Z,937.99
2018-10-16T03:11:35.937Z,938
2018-10-16T03:12:36.733Z,938.02
2018-10-16T03:13:37.354Z,938.05
2018-10-16T03:14:37.861Z,938.03
2018-10-16T03:15:38.488Z,938.05
2018-10-16T03:16:39.153Z,938.03
2018-10-16T03:17:40.497Z,938.01
2018-10-16T03:18:41.569Z,938.02
2018-10-16T03:19:42.626Z,938.03
2018-10-16T03:20:43.872Z,938.04
2018-10-16T03:21:44.249Z,938.01
2018-10-16T03:22:44.595Z,938.03
2018-10-16T03:23:45.107Z,938.02
2018-10-16T03:24:45.893Z,938.03
2018-10-16T03:25:46.512Z,938.06
2018-10-16T03:26:47.579Z,938.07
2018-10-16T03:27:48.643Z,938.04
2018-10-16T03:28:49.720Z,938.07
2018-10-16T03:29:50.061Z,938.08
2018-10-16T03:30:50.880Z,938.09
2018-10-16T03:31:51.984Z,938.11
2018-10-16T03:32:52.323Z,938.12
2018-10-16T03:33:52.830Z,938.15
2018-10-16T03:34:53.618Z,938.12
2018-10-16T03:35:54.409Z,938.13
2018-10-16T03:36:54.918Z,938.18
2018-10-16T03:37:55.709Z,938.16
2018-10-16T03:38:56.774Z,938.13
2018-10-16T03:39:57.561Z,938.19
2018-10-16T03:40:58.189Z,938.19
2018-10-16T03:41:58.872Z,938.21
2018-10-16T03:42:59.380Z,938.22
2018-10-16T03:44:00.443Z,938.22
2018-10-16T03:45:01.228Z,938.21
2018-10-16T03:46:02.291Z,938.2
2018-10-16T03:47:03.527Z,938.2
2018-10-16T03:48:03.864Z,938.23
2018-10-16T03:49:05.097Z,938.23
2018-10-16T03:50:06.163Z,938.24
2018-10-16T03:51:07.065Z,938.26
2018-10-16T03:52:07.713Z,938.27
2018-10-16T03:53:09.054Z,938.26
2018-10-16T03:54:09.837Z,938.27
2018-10-16T03:55:10.629Z,938.32
2018-10-16T03:56:10.973Z,938.31
2018-10-16T03:57:12.438Z,938.33
2018-10-16T03:58:13.832Z,938.35
2018-10-16T03:59:15.061Z,938.33
2018-10-16T04:00:15.848Z,938.33
2018-10-16T04:01:16.643Z,938.31
2018-10-16T04:02:17.872Z,938.34
2018-10-16T04:03:19.103Z,938.32
2018-10-16T04:04:19.893Z,938.35
2018-10-16T04:05:20.679Z,938.35
2018-10-16T04:06:21.463Z,938.37
2018-10-16T04:07:21.808Z,938.38
2018-10-16T04:08:22.603Z,938.39
2018-10-16T04:09:23.672Z,938.39
2018-10-16T04:10:24.737Z,938.42
2018-10-16T04:11:25.803Z,938.42
2018-10-16T04:12:26.159Z,938.39
2018-10-16T04:13:26.505Z,938.43
2018-10-16T04:14:27.012Z,938.46
2018-10-16T04:15:28.240Z,938.45
2018-10-16T04:16:28.862Z,938.5
2018-10-16T04:17:29.648Z,938.46
2018-10-16T04:18:30.155Z,938.5
2018-10-16T04:19:30.493Z,938.48
2018-10-16T04:20:31.285Z,938.45
2018-10-16T04:21:31.795Z,938.45
2018-10-16T04:22:33.119Z,938.48
2018-10-16T04:23:34.005Z,938.5
2018-10-16T04:24:35.237Z,938.51
2018-10-16T04:25:36.300Z,938.53
2018-10-16T04:26:37.089Z,938.5
2018-10-16T04:27:37.595Z,938.52
2018-10-16T04:28:37.937Z,938.53
2018-10-16T04:29:39.278Z,938.5
2018-10-16T04:30:40.068Z,938.55
2018-10-16T04:31:40.853Z,938.58
2018-10-16T04:32:41.648Z,938.58
2018-10-16T04:33:42.205Z,938.55
2018-10-16T04:34:43.270Z,938.57
2018-10-16T04:35:44.335Z,938.52
2018-10-16T04:36:45.678Z,938.58
2018-10-16T04:37:46.745Z,938.57
2018-10-16T04:38:47.815Z,938.54
2018-10-16T04:39:49.045Z,938.6
2018-10-16T04:40:50.119Z,938.61
2018-10-16T04:41:50.907Z,938.59
2018-10-16T04:42:51.421Z,938.62
2018-10-16T04:43:52.263Z,938.67
2018-10-16T04:44:53.840Z,938.64
2018-10-16T04:45:54.582Z,938.66
2018-10-16T04:46:55.391Z,938.64
2018-10-16T04:47:56.457Z,938.64
2018-10-16T04:48:56.972Z,938.64
2018-10-16T04:49:57.585Z,938.65
2018-10-16T04:50:58.371Z,938.65
2018-10-16T04:51:59.435Z,938.65
2018-10-16T04:53:00.396Z,938.66
2018-10-16T04:54:00.904Z,938.64
2018-10-16T04:55:01.490Z,938.66
2018-10-16T04:56:01.718Z,938.64
2018-10-16T04:57:02.508Z,938.65
2018-10-16T04:58:03.013Z,938.65
2018-10-16T04:59:03.526Z,938.67
2018-10-16T05:00:04.310Z,938.65
2018-10-16T05:01:04.819Z,938.65
2018-10-16T05:02:05.880Z,938.66
2018-10-16T05:03:06.845Z,938.64
2018-10-16T05:04:07.673Z,938.69
2018-10-16T05:05:07.955Z,938.66
2018-10-16T05:06:09.020Z,938.68
2018-10-16T05:07:09.652Z,938.7
2018-10-16T05:08:10.713Z,938.7
2018-10-16T05:09:11.499Z,938.68
2018-10-16T05:10:12.563Z,938.68
2018-10-16T05:11:13.115Z,938.69
2018-10-16T05:12:13.902Z,938.73
2018-10-16T05:13:14.969Z,938.73
2018-10-16T05:14:15.762Z,938.7
2018-10-16T05:15:16.824Z,938.71
2018-10-16T05:16:17.691Z,938.76
2018-10-16T05:17:18.013Z,938.74
2018-10-16T05:18:18.802Z,938.79
2018-10-16T05:19:19.658Z,938.76
2018-10-16T05:20:20.377Z,938.79
2018-10-16T05:21:21.451Z,938.78
2018-10-16T05:22:21.795Z,938.8
2018-10-16T05:23:22.757Z,938.77
2018-10-16T05:24:23.382Z,938.77
2018-10-16T05:25:24.171Z,938.81
2018-10-16T05:26:25.401Z,938.85
2018-10-16T05:27:26.775Z,938.81
2018-10-16T05:28:27.859Z,938.85
2018-10-16T05:29:29.366Z,938.86
2018-10-16T05:30:30.156Z,938.89
2018-10-16T05:31:31.036Z,938.89
2018-10-16T05:32:31.761Z,938.9
2018-10-16T05:33:32.557Z,938.93
2018-10-16T05:34:33.071Z,938.93
2018-10-16T05:35:33.861Z,938.93
2018-10-16T05:36:34.648Z,938.93
2018-10-16T05:37:35.715Z,938.97
2018-10-16T05:38:36.952Z,938.98
2018-10-16T05:39:37.739Z,939.01
2018-10-16T05:40:38.252Z,938.99
2018-10-16T05:41:38.762Z,939.04
2018-10-16T05:42:39.274Z,939.06
2018-10-16T05:43:40.094Z,939.06
2018-10-16T05:44:40.613Z,939.04
2018-10-16T05:45:41.125Z,939.05
2018-10-16T05:46:42.639Z,939.07
2018-10-16T05:47:43.425Z,939.07
2018-10-16T05:48:43.774Z,939.07
2018-10-16T05:49:44.285Z,939.11
2018-10-16T05:50:45.088Z,939.08
2018-10-16T05:51:45.587Z,939.09
2018-10-16T05:52:46.653Z,939.1
2018-10-16T05:53:47.823Z,939.11
2018-10-16T05:54:48.892Z,939.19
2018-10-16T05:55:49.245Z,939.13
2018-10-16T05:56:50.594Z,939.14
2018-10-16T05:57:51.384Z,939.15
2018-10-16T05:58:52.283Z,939.16
2018-10-16T05:59:53.072Z,939.15
2018-10-16T06:00:54.134Z,939.18
2018-10-16T06:01:55.322Z,939.19
2018-10-16T06:02:55.925Z,939.2
2018-10-16T06:03:56.468Z,939.23
2018-10-16T06:04:57.538Z,939.23
2018-10-16T06:05:58.770Z,939.23
2018-10-16T06:06:59.855Z,939.31
2018-10-16T06:08:00.431Z,939.29
2018-10-16T06:09:01.508Z,939.34
2018-10-16T06:10:02.299Z,939.33
2018-10-16T06:11:03.383Z,939.28
2018-10-16T06:12:04.143Z,939.36
2018-10-16T06:13:04.774Z,939.34
2018-10-16T06:14:06.018Z,939.38
2018-10-16T06:15:06.808Z,939.4
2018-10-16T06:16:08.100Z,939.39
2018-10-16T06:17:09.043Z,939.4
2018-10-16T06:18:09.678Z,939.4
2018-10-16T06:19:10.745Z,939.39
2018-10-16T06:20:11.268Z,939.42
2018-10-16T06:21:11.615Z,939.41
2018-10-16T06:22:12.127Z,939.43
2018-10-16T06:23:13.193Z,939.45
2018-10-16T06:24:13.815Z,939.45
2018-10-16T06:25:14.381Z,939.45
2018-10-16T06:26:15.132Z,939.5
2018-10-16T06:27:15.616Z,939.48
2018-10-16T06:28:16.133Z,939.49
2018-10-16T06:29:17.202Z,939.5
2018-10-16T06:30:18.516Z,939.55
2018-10-16T06:31:19.419Z,939.54
2018-10-16T06:32:20.208Z,939.55
2018-10-16T06:33:21.513Z,939.54
2018-10-16T06:34:21.824Z,939.54
2018-10-16T06:35:22.891Z,939.6
2018-10-16T06:36:23.956Z,939.57
2018-10-16T06:37:24.749Z,939.59
2018-10-16T06:38:25.100Z,939.57
2018-10-16T06:39:26.173Z,939.6
2018-10-16T06:40:26.707Z,939.61
2018-10-16T06:41:27.660Z,939.59
2018-10-16T06:42:28.861Z,939.61
2018-10-16T06:43:29.653Z,939.59
2018-10-16T06:44:30.719Z,939.59
2018-10-16T06:45:31.065Z,939.57
2018-10-16T06:46:32.780Z,939.59
2018-10-16T06:47:33.920Z,939.62
2018-10-16T06:48:35.593Z,939.61
2018-10-16T06:48:46.795Z,939.61
2018-10-16T06:49:47.669Z,939.64
2018-10-16T06:50:48.461Z,939.66
2018-10-16T06:51:49.532Z,939.64
2018-10-16T06:52:50.769Z,939.66
2018-10-16T06:53:51.562Z,939.66
2018-10-16T06:54:52.253Z,939.67
2018-10-16T06:55:53.060Z,939.68
2018-10-16T06:56:53.862Z,939.66
2018-10-16T06:57:54.305Z,939.63
2018-10-16T06:58:55.376Z,939.64
2018-10-16T06:59:55.896Z,939.72
2018-10-16T07:00:56.347Z,939.74
2018-10-16T07:01:57.864Z,939.77
2018-10-16T07:02:58.379Z,939.76
2018-10-16T07:03:59.449Z,939.77
2018-10-16T07:04:59.803Z,939.81
2018-10-16T07:06:00.619Z,939.83
2018-10-16T07:07:01.815Z,939.84
2018-10-16T07:08:02.236Z,939.86
2018-10-16T07:09:02.752Z,939.87
2018-10-16T07:10:03.612Z,939.87
2018-10-16T07:11:04.969Z,939.85
2018-10-16T07:12:05.762Z,939.83
2018-10-16T07:13:07.356Z,939.85
2018-10-16T07:14:08.269Z,939.84
2018-10-16T07:15:09.106Z,939.84
2018-10-16T07:16:09.475Z,939.82
2018-10-16T07:17:10.102Z,939.83
2018-10-16T07:18:11.175Z,939.85
2018-10-16T07:19:11.688Z,939.81
2018-10-16T07:20:12.660Z,939.82
2018-10-16T07:21:13.885Z,939.8
2018-10-16T07:22:15.127Z,939.85
2018-10-16T07:23:15.529Z,939.85
2018-10-16T07:24:15.832Z,939.83
2018-10-16T07:25:16.627Z,939.79
2018-10-16T07:26:18.000Z,939.79
2018-10-16T07:27:19.531Z,939.81
2018-10-16T07:28:20.610Z,939.87
2018-10-16T07:29:21.403Z,939.8
2018-10-16T07:30:22.077Z,939.84
2018-10-16T07:31:23.434Z,939.87
2018-10-16T07:32:24.509Z,939.85
2018-10-16T07:33:25.018Z,939.83
2018-10-16T07:34:25.756Z,939.86
2018-10-16T07:35:26.549Z,939.84
2018-10-16T07:36:27.141Z,939.85
2018-10-16T07:37:28.328Z,939.88
2018-10-16T07:38:29.073Z,939.88
2018-10-16T07:39:30.091Z,939.9
2018-10-16T07:40:31.455Z,939.88
2018-10-16T07:41:32.545Z,939.87
2018-10-16T07:42:33.346Z,939.86
2018-10-16T07:43:34.415Z,939.86
2018-10-16T07:44:35.049Z,939.89
2018-10-16T07:45:35.846Z,939.87
2018-10-16T07:46:36.497Z,939.87
2018-10-16T07:47:37.296Z,939.91
2018-10-16T07:48:38.289Z,939.95
2018-10-16T07:49:39.117Z,939.94
2018-10-16T07:50:40.392Z,939.93
2018-10-16T07:51:41.190Z,939.91
2018-10-16T07:52:41.844Z,939.91
2018-10-16T07:53:42.486Z,939.92
2018-10-16T07:54:43.560Z,939.87
2018-10-16T07:55:44.183Z,939.95
2018-10-16T07:56:44.803Z,939.93
2018-10-16T07:57:45.876Z,939.95
2018-10-16T07:58:46.240Z,939.99
2018-10-16T07:59:47.148Z,940.03
2018-10-16T08:00:47.613Z,940.01
2018-10-16T08:01:48.460Z,940.03
2018-10-16T08:02:49.476Z,940.05
2018-10-16T08:03:50.106Z,940.03
2018-10-16T08:04:50.904Z,940.02
2018-10-16T08:05:51.268Z,939.98
2018-10-16T08:06:52.060Z,939.97
2018-10-16T08:07:53.420Z,939.97
2018-10-16T08:08:54.048Z,939.98
2018-10-16T08:09:54.582Z,939.99
2018-10-16T08:10:55.403Z,939.99
2018-10-16T08:11:56.484Z,939.98
2018-10-16T08:12:57.555Z,939.94
2018-10-16T08:13:58.911Z,939.95
2018-10-16T08:14:59.429Z,940.02
2018-10-16T08:16:00.077Z,939.96
2018-10-16T08:17:00.972Z,939.96
2018-10-16T08:18:01.687Z,939.96
2018-10-16T08:19:02.765Z,939.94
2018-10-16T08:20:03.842Z,939.93
2018-10-16T08:21:05.086Z,939.92
2018-10-16T08:22:06.270Z,939.97
2018-10-16T08:23:06.786Z,939.94
2018-10-16T08:24:07.306Z,939.95
2018-10-16T08:25:08.115Z,939.94
2018-10-16T08:26:08.912Z,939.91
2018-10-16T08:27:10.444Z,939.96
2018-10-16T08:28:11.635Z,940.06
2018-10-16T08:29:12.333Z,939.99
2018-10-16T08:30:13.140Z,940.03
2018-10-16T08:31:13.912Z,940.11
2018-10-16T08:32:14.709Z,940.05
2018-10-16T08:33:16.072Z,940.17
2018-10-16T08:34:16.896Z,940.1
2018-10-16T08:35:17.517Z,940.13
2018-10-16T08:36:18.751Z,940.12
2018-10-16T08:37:20.109Z,940.09
2018-10-16T08:38:20.564Z,940.11
2018-10-16T08:39:20.912Z,940.07
2018-10-16T08:40:22.268Z,940.09
2018-10-16T08:41:23.244Z,940.1
2018-10-16T08:42:23.764Z,940.1
2018-10-16T08:43:24.123Z,940.11
2018-10-16T08:44:24.923Z,940.08
2018-10-16T08:45:26.003Z,940.06
2018-10-16T08:46:26.802Z,940.09
2018-10-16T08:47:27.462Z,940.06
2018-10-16T08:48:28.206Z,940.11
2018-10-16T08:49:28.845Z,940.11
2018-10-16T08:50:30.418Z,940.13
2018-10-16T08:51:32.046Z,940.09
2018-10-16T08:52:33.476Z,940.03
2018-10-16T08:53:33.830Z,940.03
2018-10-16T08:54:34.904Z,940
2018-10-16T08:55:36.255Z,940.04
2018-10-16T08:56:36.612Z,940
2018-10-16T08:57:37.406Z,940.01
2018-10-16T08:58:37.932Z,940.01
2018-10-16T08:59:38.463Z,939.98
2018-10-16T09:00:39.526Z,939.96
2018-10-16T09:01:40.493Z,939.99
2018-10-16T09:02:41.732Z,940.04
2018-10-16T09:03:42.529Z,940.03
2018-10-16T09:04:43.333Z,940.03
2018-10-16T09:05:44.576Z,940.02
2018-10-16T09:06:45.764Z,940.02
2018-10-16T09:07:46.109Z,940.05
2018-10-16T09:08:46.467Z,940.07
2018-10-16T09:09:47.454Z,940.1
2018-10-16T09:10:48.375Z,940.06
2018-10-16T09:11:49.460Z,940.12
2018-10-16T09:12:50.102Z,940.1
2018-10-16T09:13:50.879Z,940.11
2018-10-16T09:14:51.223Z,940.12
2018-10-16T09:15:51.581Z,940.1
2018-10-16T09:16:52.489Z,940.07
2018-10-16T09:17:52.964Z,940.15
2018-10-16T09:18:54.323Z,940.12
2018-10-16T09:19:55.403Z,940.14
2018-10-16T09:20:55.927Z,940.13
2018-10-16T09:21:56.738Z,940.06
2018-10-16T09:22:57.980Z,940.09
2018-10-16T09:23:58.796Z,940.09
2018-10-16T09:25:00.092Z,940.11
2018-10-16T09:26:00.854Z,940.08
2018-10-16T09:27:01.649Z,940.09
2018-10-16T09:28:02.445Z,940.06
2018-10-16T09:29:02.797Z,940.06
2018-10-16T09:30:04.319Z,940.06
2018-10-16T09:31:05.660Z,940.06
2018-10-16T09:32:06.655Z,940.07
2018-10-16T09:33:07.754Z,940.04
2018-10-16T09:34:08.548Z,940.06
2018-10-16T09:35:09.326Z,940.08
2018-10-16T09:36:10.403Z,940.03
2018-10-16T09:37:11.476Z,940.07
2018-10-16T09:38:12.772Z,940.04
2018-10-16T09:39:13.762Z,940.05
2018-10-16T09:40:16.149Z,940.08
2018-10-16T09:41:17.247Z,940.06
2018-10-16T09:42:18.120Z,940.05
2018-10-16T09:43:18.987Z,940.05
2018-10-16T09:44:20.330Z,940.08
2018-10-16T09:45:21.343Z,940.06
2018-10-16T09:46:21.967Z,940.09
2018-10-16T09:47:23.039Z,940.06
2018-10-16T09:48:24.138Z,940.07
2018-10-16T09:49:24.812Z,940.04
2018-10-16T09:50:25.494Z,940.1
2018-10-16T09:51:26.466Z,940.1
2018-10-16T09:52:27.265Z,940.12
2018-10-16T09:53:28.496Z,940.1
2018-10-16T09:54:29.528Z,940.08
2018-10-16T09:55:29.870Z,940.1
2018-10-16T09:56:30.388Z,940.08
2018-10-16T09:57:31.022Z,940.13
2018-10-16T09:58:31.825Z,940.12
2018-10-16T09:59:33.177Z,940.2
2018-10-16T10:00:33.979Z,940.2
2018-10-16T10:01:34.662Z,940.21
2018-10-16T10:02:37.306Z,940.29
2018-10-16T10:03:38.304Z,940.26
2018-10-16T10:04:39.193Z,940.26
2018-10-16T10:05:39.716Z,940.31
2018-10-16T10:06:40.237Z,940.27
2018-10-16T10:07:40.876Z,940.3
2018-10-16T10:08:41.405Z,940.31
2018-10-16T10:09:42.209Z,940.29
2018-10-16T10:10:44.223Z,940.3
2018-10-16T10:10:56.349Z,940.33
2018-10-16T10:11:08.153Z,940.31
2018-10-16T10:11:20.016Z,940.3
2018-10-16T10:11:32.617Z,940.34
2018-10-16T10:12:33.565Z,940.35
2018-10-16T10:13:34.309Z,940.35
2018-10-16T10:14:34.834Z,940.33
2018-10-16T10:15:35.455Z,940.31
2018-10-16T10:16:36.255Z,940.3
2018-10-16T10:17:37.061Z,940.3
2018-10-16T10:18:38.312Z,940.32
2018-10-16T10:19:39.396Z,940.31
2018-10-16T10:20:39.751Z,940.29
2018-10-16T10:21:41.109Z,940.31
2018-10-16T10:22:43.268Z,940.27
2018-10-16T10:22:54.905Z,940.3
2018-10-16T10:23:55.788Z,940.26
2018-10-16T10:24:56.870Z,940.24
2018-10-16T10:25:57.656Z,940.21
2018-10-16T10:26:58.455Z,940.17
2018-10-16T10:27:59.198Z,940.2
2018-10-16T10:29:00.250Z,940.18
2018-10-16T10:30:00.897Z,940.17
2018-10-16T10:31:02.180Z,940.17
2018-10-16T10:32:03.192Z,940.16
2018-10-16T10:33:04.439Z,940.18
2018-10-16T10:34:05.422Z,940.18
2018-10-16T10:35:06.027Z,940.15
2018-10-16T10:36:07.230Z,940.12
2018-10-16T10:37:08.332Z,940.12
2018-10-16T10:38:09.585Z,940.1
2018-10-16T10:39:11.190Z,940.09
2018-10-16T10:40:12.026Z,940.14
2018-10-16T10:40:23.550Z,940.14
2018-10-16T10:40:35.916Z,940.1
2018-10-16T10:40:48.153Z,940.09
2018-10-16T10:41:48.599Z,940.11
2018-10-16T10:42:49.883Z,940.08
2018-10-16T10:43:51.542Z,940.06
2018-10-16T10:44:52.628Z,940.07
2018-10-16T10:45:53.830Z,940.08
2018-10-16T10:46:55.262Z,940.05
2018-10-16T10:47:56.609Z,940.04
2018-10-16T10:48:57.262Z,940.02
2018-10-16T10:49:57.901Z,940.03
2018-10-16T10:50:59.529Z,940.02
2018-10-16T10:52:00.459Z,940.03
2018-10-16T10:53:01.543Z,940.01
2018-10-16T10:54:02.179Z,940
2018-10-16T10:55:03.265Z,940.01
2018-10-16T10:56:04.345Z,939.96
2018-10-16T10:57:05.670Z,939.96
2018-10-16T10:57:17.932Z,939.95
2018-10-16T10:58:18.254Z,939.93
2018-10-16T10:59:18.786Z,939.95
2018-10-16T11:00:20.428Z,939.97
2018-10-16T11:01:20.836Z,939.98
2018-10-16T11:02:22.272Z,939.94
2018-10-16T11:03:23.559Z,939.91
2018-10-16T11:04:24.530Z,939.92
2018-10-16T11:05:25.614Z,939.89
2018-10-16T11:06:26.137Z,939.91
2018-10-16T11:07:26.661Z,939.87
2018-10-16T11:08:27.701Z,939.86
2018-10-16T11:09:28.495Z,939.86
2018-10-16T11:10:29.020Z,939.85
2018-10-16T11:11:29.858Z,939.81
2018-10-16T11:12:30.396Z,939.83
2018-10-16T11:13:31.464Z,939.83
2018-10-16T11:14:32.541Z,939.84
2018-10-16T11:15:33.345Z,939.8
2018-10-16T11:16:34.160Z,939.81
2018-10-16T11:17:34.521Z,939.85
2018-10-16T11:18:35.283Z,939.78
2018-10-16T11:19:36.367Z,939.82
2018-10-16T11:20:37.168Z,939.81
2018-10-16T11:21:38.251Z,939.77
2018-10-16T11:22:39.331Z,939.81
2018-10-16T11:23:39.874Z,939.76
2018-10-16T11:24:40.676Z,939.77
2018-10-16T11:25:41.760Z,939.77
2018-10-16T11:26:42.552Z,939.74
2018-10-16T11:27:43.081Z,939.76
2018-10-16T11:28:44.185Z,939.75
2018-10-16T11:29:45.538Z,939.74
2018-10-16T11:30:46.062Z,939.75
2018-10-16T11:31:46.869Z,939.77
2018-10-16T11:32:47.779Z,939.75
2018-10-16T11:33:48.671Z,939.74
2018-10-16T11:34:49.996Z,939.7
2018-10-16T11:35:50.799Z,939.74
2018-10-16T11:36:52.220Z,939.75
2018-10-16T11:37:53.223Z,939.72
2018-10-16T11:38:54.574Z,939.77
2018-10-16T11:39:55.449Z,939.72
2018-10-16T11:40:56.457Z,939.72
2018-10-16T11:41:57.785Z,939.71
2018-10-16T11:42:59.132Z,939.7
2018-10-16T11:44:00.257Z,939.72
2018-10-16T11:45:01.226Z,939.66
2018-10-16T11:46:02.036Z,939.66
2018-10-16T11:47:02.835Z,939.67
2018-10-16T11:48:03.634Z,939.66
2018-10-16T11:49:04.332Z,939.65
2018-10-16T11:50:05.867Z,939.66
2018-10-16T11:51:06.161Z,939.68
2018-10-16T11:52:07.274Z,939.67
2018-10-16T11:53:08.315Z,939.68
2018-10-16T11:54:09.871Z,939.68
2018-10-16T11:55:10.439Z,939.67
2018-10-16T11:56:11.334Z,939.7
2018-10-16T11:57:12.676Z,939.67
2018-10-16T11:58:13.200Z,939.67
2018-10-16T11:59:14.505Z,939.67
2018-10-16T12:00:15.370Z,939.65
2018-10-16T12:01:16.516Z,939.65
2018-10-16T12:02:17.943Z,939.66
2018-10-16T12:03:18.440Z,939.69
2018-10-16T12:04:19.522Z,939.67
2018-10-16T12:05:20.051Z,939.65
2018-10-16T12:06:20.580Z,939.67
2018-10-16T12:07:22.102Z,939.65
2018-10-16T12:08:22.617Z,939.67
2018-10-16T12:09:23.335Z,939.68
2018-10-16T12:10:24.422Z,939.68
2018-10-16T12:11:24.780Z,939.71
2018-10-16T12:12:25.595Z,939.7
2018-10-16T12:13:26.670Z,939.69
2018-10-16T12:14:27.492Z,939.72
2018-10-16T12:15:28.582Z,939.7
2018-10-16T12:16:29.384Z,939.68
2018-10-16T12:17:30.150Z,939.68
2018-10-16T12:18:30.509Z,939.71
2018-10-16T12:19:31.613Z,939.7
2018-10-16T12:20:32.564Z,939.7
2018-10-16T12:21:33.367Z,939.69
2018-10-16T12:22:34.776Z,939.7
2018-10-16T12:23:36.005Z,939.68
2018-10-16T12:24:36.345Z,939.71
2018-10-16T12:25:37.178Z,939.67
2018-10-16T12:26:39.694Z,939.7
2018-10-16T12:26:50.964Z,939.69
2018-10-16T12:27:03.112Z,939.67
2018-10-16T12:27:14.774Z,939.68
2018-10-16T12:28:15.348Z,939.63
2018-10-16T12:29:15.707Z,939.63
2018-10-16T12:30:16.511Z,939.62
2018-10-16T12:31:17.736Z,939.62
2018-10-16T12:32:18.541Z,939.64